createdAt,value
2018-08-31T13:18:40.059Z,58.30
2018-08-31T13:23:43.294Z,58.60
2018-08-31T13:28:46.484Z,57.90
2018-08-31T13:33:49.686Z,57.30
2018-08-31T13:38:52.825Z,56.60
2018-08-31T13:43:56.042Z,55.90
2018-08-31T13:48:59.219Z,57.70
2018-08-31T13:54:02.537Z,58.80
2018-08-31T13:59:05.841Z,59.80
2018-08-31T14:04:09.045Z,56.60
2018-08-31T14:09:12.283Z,55.10
2018-08-31T14:14:15.566Z,55.40
2018-08-31T14:19:18.758Z,52.80
2018-08-31T14:24:21.954Z,55.10
2018-08-31T14:29:25.230Z,54.20
2018-08-31T14:34:28.438Z,55.50
2018-08-31T14:39:31.630Z,54.80
2018-08-31T14:44:34.858Z,55.30
2018-08-31T14:49:38.213Z,55.00
2018-08-31T14:54:41.351Z,54.20
2018-08-31T14:59:44.586Z,54.40
2018-08-31T15:04:47.876Z,55.90
2018-08-31T15:09:51.556Z,57.10
2018-08-31T15:14:54.799Z,61.10
2018-08-31T15:19:58.022Z,63.70
2018-08-31T15:25:01.419Z,64.20
2018-08-31T15:30:05.375Z,64.60
2018-08-31T15:35:08.656Z,65.30
2018-08-31T15:40:11.881Z,65.00
2018-08-31T15:45:15.190Z,66.10
2018-08-31T15:50:18.390Z,67.00
2018-08-31T15:55:21.602Z,67.10
2018-08-31T16:00:24.811Z,66.50
2018-08-31T16:05:28.014Z,66.70
2018-08-31T16:10:31.491Z,66.70
2018-08-31T16:15:34.699Z,67.00
2018-08-31T16:20:37.986Z,67.90
2018-08-31T16:25:41.163Z,67.20
2018-08-31T16:30:44.379Z,67.60
2018-08-31T16:35:47.566Z,68.40
2018-08-31T16:40:50.962Z,69.10
2018-08-31T16:45:54.185Z,69.40
2018-08-31T16:50:57.390Z,69.80
2018-08-31T16:56:00.635Z,69.90
2018-08-31T17:01:03.839Z,70.50
2018-08-31T17:06:07.066Z,71.60
2018-08-31T17:11:10.285Z,70.40
2018-08-31T17:16:13.497Z,69.90
2018-08-31T17:21:16.770Z,69.80
2018-08-31T17:26:25.612Z,71.30
2018-08-31T17:31:34.142Z,70.20
2018-08-31T17:36:42.918Z,70.10
2018-08-31T17:41:46.133Z,70.80
2018-08-31T17:46:49.323Z,70.50
2018-08-31T17:51:52.569Z,71.00
2018-08-31T17:56:55.763Z,72.40
2018-08-31T18:01:59.012Z,72.30
2018-08-31T18:07:02.231Z,73.80
2018-08-31T18:12:05.459Z,73.00
2018-08-31T18:17:08.883Z,73.30
2018-08-31T18:22:12.124Z,73.40
2018-08-31T18:27:15.328Z,73.40
2018-08-31T18:32:18.530Z,74.50
2018-08-31T18:37:21.743Z,73.70
2018-08-31T18:42:24.982Z,73.90
2018-08-31T18:47:28.174Z,74.10
2018-08-31T18:52:31.490Z,73.80
2018-08-31T18:57:34.622Z,75.00
2018-08-31T19:02:37.835Z,76.00
2018-08-31T19:07:41.350Z,76.00
2018-08-31T19:12:44.569Z,76.40
2018-08-31T19:17:48.236Z,77.50
2018-08-31T19:22:51.482Z,78.70
2018-08-31T19:27:54.744Z,79.00
2018-08-31T19:32:57.934Z,79.20
2018-08-31T19:38:01.123Z,80.10
2018-08-31T19:43:04.438Z,81.00
2018-08-31T19:48:07.659Z,82.20
2018-08-31T19:53:10.862Z,82.50
2018-08-31T19:58:14.030Z,83.40
2018-08-31T20:03:17.226Z,83.60
2018-08-31T20:08:20.416Z,84.50
2018-08-31T20:13:23.593Z,84.60
2018-08-31T20:18:26.734Z,84.00
2018-08-31T20:23:29.903Z,84.20
2018-08-31T20:28:33.070Z,84.50
2018-08-31T20:33:36.246Z,85.70
2018-08-31T20:38:39.413Z,85.00
2018-08-31T20:43:42.586Z,85.90
2018-08-31T20:48:45.762Z,86.80
2018-08-31T20:53:49.399Z,87.00
2018-08-31T20:58:52.667Z,86.70
2018-08-31T21:03:55.857Z,87.40
2018-08-31T21:08:59.078Z,88.00
2018-08-31T21:14:02.270Z,88.40
2018-08-31T21:19:05.527Z,89.70
2018-08-31T21:24:08.703Z,89.70
2018-08-31T21:29:11.875Z,90.10
2018-08-31T21:34:15.150Z,92.50
2018-08-31T21:39:18.250Z,92.90
2018-08-31T21:44:21.432Z,93.80
2018-08-31T21:49:24.672Z,93.60
2018-08-31T21:54:28.170Z,94.50
2018-08-31T21:59:31.382Z,95.70
2018-08-31T22:04:34.612Z,94.90
2018-08-31T22:09:37.822Z,95.90
2018-08-31T22:14:41.027Z,96.90
2018-08-31T22:19:44.255Z,97.20
2018-08-31T22:24:47.514Z,97.50
2018-08-31T22:29:50.722Z,96.80
2018-08-31T22:34:53.956Z,96.20
2018-08-31T22:39:57.167Z,95.60
2018-08-31T22:45:00.397Z,95.20
2018-08-31T22:50:03.615Z,96.10
2018-08-31T22:55:06.966Z,97.50
2018-08-31T23:00:10.138Z,97.50
2018-08-31T23:05:13.295Z,97.50
2018-08-31T23:10:16.495Z,97.50
2018-08-31T23:15:19.681Z,97.50
2018-08-31T23:20:22.851Z,97.50
2018-08-31T23:25:31.413Z,97.50
2018-08-31T23:30:34.578Z,97.50
2018-08-31T23:35:37.747Z,97.50
2018-08-31T23:40:40.921Z,97.50
2018-08-31T23:45:44.086Z,97.50
2018-08-31T23:50:47.271Z,97.50
2018-08-31T23:55:50.446Z,97.50
